Terminal Aerodrome Forecast
Issued by NWS Wichita, KS

Home | Current Version | Previous Version | Graphics & Text | Print | Product List | Glossary On
Versions: 1 2 3 4 5 6 7 8 9 10 11 12 13 14 15 16 17 18 19
000
FTUS43 KICT 201431 AAC
TAFICT
TAF AMD
KICT 201431Z 2015/2112 18012KT P6SM BKN015
     FM201900 18013KT P6SM BKN040
     FM202100 17012KT P6SM SCT080
     FM210000 15007KT P6SM SCT070=

USA.gov is the U.S. government's official web portal to all federal, state and local government web resources and services.